createdAt,value
2019-04-20T00:01:26.242Z,23.10
2019-04-20T00:03:51.921Z,23.10
2019-04-20T00:06:21.497Z,23.10
2019-04-20T00:08:56.799Z,23.10
2019-04-20T00:11:27.533Z,23.10
2019-04-20T00:14:01.347Z,23.10
2019-04-20T00:16:22.966Z,23.10
2019-04-20T00:18:56.633Z,23.10
2019-04-20T00:21:42.768Z,23.10
2019-04-20T00:24:18.051Z,23.10
2019-04-20T00:27:09.242Z,23.10
2019-04-20T00:29:30.982Z,23.00
2019-04-20T00:31:56.658Z,23.00
2019-04-20T00:34:38.900Z,23.00
2019-04-20T00:37:05.790Z,23.00
2019-04-20T00:39:36.120Z,23.00
2019-04-20T00:42:09.715Z,23.00
2019-04-20T00:44:39.101Z,23.00
2019-04-20T00:47:15.580Z,23.00
2019-04-20T00:49:48.417Z,23.00
2019-04-20T00:54:37.138Z,23.00
2019-04-20T00:57:20.304Z,23.00
2019-04-20T00:59:59.278Z,23.00
2019-04-20T01:02:21.037Z,23.00
2019-04-20T01:04:57.851Z,23.00
2019-04-20T01:07:27.425Z,23.00
2019-04-20T01:10:09.294Z,22.90
2019-04-20T01:12:40.445Z,23.00
2019-04-20T01:15:11.812Z,22.90
2019-04-20T01:17:41.548Z,22.90
2019-04-20T01:20:10.004Z,22.90
2019-04-20T01:22:44.340Z,22.90
2019-04-20T01:25:17.134Z,22.90
2019-04-20T01:28:01.077Z,22.90
2019-04-20T01:30:18.654Z,22.90
2019-04-20T01:32:57.571Z,22.90
2019-04-20T01:35:30.426Z,22.90
2019-04-20T01:38:00.270Z,22.90
2019-04-20T01:40:14.734Z,22.90
2019-04-20T01:42:44.555Z,22.90
2019-04-20T01:45:19.858Z,22.90
2019-04-20T01:47:48.865Z,22.90
2019-04-20T01:50:20.948Z,22.90
2019-04-20T01:52:56.484Z,22.90
2019-04-20T01:55:41.475Z,22.90
2019-04-20T01:58:37.638Z,22.90
2019-04-20T02:00:57.257Z,22.90
2019-04-20T02:03:38.457Z,22.90
2019-04-20T02:06:10.054Z,22.80
2019-04-20T02:08:35.818Z,22.90
2019-04-20T02:11:07.561Z,22.80
2019-04-20T02:13:42.150Z,22.90
2019-04-20T02:16:16.920Z,22.80
2019-04-20T02:18:44.108Z,22.80
2019-04-20T02:21:24.762Z,22.80
2019-04-20T02:23:46.197Z,22.80
2019-04-20T02:26:07.188Z,22.80
2019-04-20T02:29:00.746Z,22.80
2019-04-20T02:34:24.144Z,22.80
2019-04-20T02:36:58.864Z,22.80
2019-04-20T02:47:04.658Z,22.80
2019-04-20T02:49:35.928Z,22.80
2019-04-20T02:54:26.016Z,22.80
2019-04-20T02:57:05.326Z,22.80
2019-04-20T02:59:53.770Z,22.80
2019-04-20T03:01:45.429Z,22.80
2019-04-20T03:04:01.438Z,22.80
2019-04-20T03:06:39.811Z,22.80
2019-04-20T03:09:20.141Z,22.80
2019-04-20T03:11:59.681Z,22.80
2019-04-20T03:14:13.880Z,22.80
2019-04-20T03:16:43.690Z,22.80
2019-04-20T03:19:17.388Z,22.80
2019-04-20T03:21:51.339Z,22.70
2019-04-20T03:24:26.810Z,22.80
2019-04-20T03:26:54.650Z,22.70
2019-04-20T03:29:47.062Z,22.80
2019-04-20T03:32:52.858Z,22.70
2019-04-20T03:37:26.684Z,22.70
2019-04-20T03:39:41.683Z,22.70
2019-04-20T03:42:00.242Z,22.70
2019-04-20T03:44:32.159Z,22.70
2019-04-20T03:47:04.569Z,22.70
2019-04-20T03:49:54.829Z,22.70
2019-04-20T03:52:31.070Z,22.70
2019-04-20T03:54:57.375Z,22.70
2019-04-20T03:57:49.754Z,22.70
2019-04-20T04:00:27.523Z,22.70
2019-04-20T04:03:12.906Z,22.70
2019-04-20T04:06:00.883Z,22.70
2019-04-20T04:08:25.588Z,22.70
2019-04-20T04:11:10.897Z,22.60
2019-04-20T04:13:18.733Z,22.70
2019-04-20T04:15:56.797Z,22.70
2019-04-20T04:18:26.042Z,22.60
2019-04-20T04:20:57.408Z,22.60
2019-04-20T04:23:36.586Z,22.70
2019-04-20T04:26:08.581Z,22.60
2019-04-20T04:28:35.130Z,22.60
2019-04-20T04:31:12.210Z,22.70
2019-04-20T04:36:10.140Z,22.60
2019-04-20T04:38:57.175Z,22.60
2019-04-20T04:41:18.249Z,22.60
2019-04-20T04:43:48.334Z,22.60
2019-04-20T04:45:55.509Z,22.60
2019-04-20T04:48:29.907Z,22.60
2019-04-20T04:51:02.491Z,22.60
2019-04-20T04:53:40.695Z,22.60
2019-04-20T04:56:03.043Z,22.60
2019-04-20T04:58:26.117Z,22.60
2019-04-20T05:01:01.348Z,22.60
2019-04-20T05:03:45.397Z,22.60
2019-04-20T05:06:18.745Z,22.60
2019-04-20T05:08:39.623Z,22.60
2019-04-20T05:11:02.881Z,22.60
2019-04-20T05:13:37.998Z,22.50
2019-04-20T05:16:16.772Z,22.60
2019-04-20T05:18:57.835Z,22.50
2019-04-20T05:21:25.398Z,22.50
2019-04-20T05:24:04.495Z,22.60
2019-04-20T05:26:51.005Z,22.50
2019-04-20T05:29:06.739Z,22.50
2019-04-20T05:31:36.365Z,22.50
2019-04-20T05:34:20.427Z,22.50
2019-04-20T05:36:52.592Z,22.50
2019-04-20T05:39:29.820Z,22.50
2019-04-20T05:41:48.614Z,22.50
2019-04-20T05:44:25.798Z,22.50
2019-04-20T05:47:06.906Z,22.50
2019-04-20T05:49:40.261Z,22.50
2019-04-20T05:52:20.216Z,22.50
2019-04-20T05:54:39.074Z,22.50
2019-04-20T05:57:19.906Z,22.50
2019-04-20T05:59:40.897Z,22.50
2019-04-20T06:02:10.000Z,22.50
2019-04-20T06:05:05.667Z,22.50
2019-04-20T06:07:30.927Z,22.50
2019-04-20T06:10:06.179Z,22.40
2019-04-20T06:15:12.383Z,22.50
2019-04-20T06:17:58.362Z,22.50
2019-04-20T06:20:39.207Z,22.50
2019-04-20T06:23:24.545Z,22.50
2019-04-20T06:26:03.857Z,22.60
2019-04-20T06:28:24.572Z,22.60
2019-04-20T06:30:51.145Z,22.60
2019-04-20T06:36:43.104Z,22.60
2019-04-20T06:39:13.367Z,22.60
2019-04-20T06:41:54.272Z,22.70
2019-04-20T06:44:08.560Z,22.70
2019-04-20T06:46:45.343Z,22.70
2019-04-20T06:49:16.976Z,22.70
2019-04-20T06:51:47.479Z,22.80
2019-04-20T06:54:15.828Z,22.80
2019-04-20T06:56:54.071Z,22.70
2019-04-20T06:59:32.382Z,22.80
2019-04-20T07:02:04.030Z,22.70
2019-04-20T07:07:18.523Z,22.80
2019-04-20T07:12:05.473Z,22.80
2019-04-20T07:14:28.868Z,22.80
2019-04-20T07:17:24.443Z,22.80
2019-04-20T07:19:51.758Z,22.80
2019-04-20T07:22:38.916Z,22.80
2019-04-20T07:27:35.514Z,22.70
2019-04-20T07:30:09.444Z,22.70
2019-04-20T07:32:44.110Z,22.70
2019-04-20T07:35:09.832Z,22.70
2019-04-20T07:38:13.498Z,22.70
2019-04-20T07:40:20.634Z,22.70
2019-04-20T07:42:51.857Z,22.60
2019-04-20T07:45:26.202Z,22.60
2019-04-20T07:47:52.684Z,22.60
2019-04-20T07:50:17.457Z,22.60
2019-04-20T07:52:45.078Z,22.60
2019-04-20T07:57:52.606Z,22.60
2019-04-20T08:00:38.247Z,22.60
2019-04-20T08:03:22.255Z,22.60
2019-04-20T08:05:59.587Z,22.60
2019-04-20T08:08:35.209Z,22.60
2019-04-20T08:11:10.340Z,22.60
2019-04-20T08:13:45.701Z,22.60
2019-04-20T08:16:20.337Z,22.60
2019-04-20T08:18:44.576Z,22.60
2019-04-20T08:21:19.135Z,22.60
2019-04-20T08:23:45.898Z,22.60
2019-04-20T08:26:05.696Z,22.60
2019-04-20T08:28:42.357Z,22.60
2019-04-20T08:31:32.466Z,22.60
2019-04-20T08:34:18.598Z,22.60
2019-04-20T08:37:08.496Z,22.60
2019-04-20T08:39:51.206Z,22.70
2019-04-20T08:42:14.625Z,22.60
2019-04-20T08:47:27.663Z,22.60
2019-04-20T08:50:17.265Z,22.70
2019-04-20T08:53:03.883Z,22.70
2019-04-20T08:55:10.624Z,22.70
2019-04-20T08:57:25.044Z,22.70
2019-04-20T09:00:18.304Z,22.70
2019-04-20T09:02:48.919Z,22.70
2019-04-20T09:05:32.932Z,22.60
2019-04-20T09:08:00.525Z,22.60
2019-04-20T09:10:46.791Z,22.60
2019-04-20T09:13:05.754Z,22.60
2019-04-20T09:15:23.352Z,22.60
2019-04-20T09:18:25.104Z,22.60
2019-04-20T09:20:56.034Z,22.70
2019-04-20T09:23:36.804Z,22.70
2019-04-20T09:26:27.039Z,22.70
2019-04-20T09:29:13.944Z,22.70
2019-04-20T09:31:39.309Z,22.70
2019-04-20T09:34:26.011Z,22.70
2019-04-20T09:37:21.967Z,22.70
2019-04-20T09:39:53.292Z,22.70
2019-04-20T09:42:34.898Z,22.80
2019-04-20T09:45:06.203Z,22.80
2019-04-20T09:47:45.015Z,22.80
2019-04-20T09:50:29.207Z,22.80
2019-04-20T09:52:57.051Z,22.80
2019-04-20T09:55:24.616Z,22.80
2019-04-20T09:58:02.731Z,22.80
2019-04-20T10:00:28.936Z,22.80
2019-04-20T10:02:46.391Z,22.90
2019-04-20T10:05:15.653Z,22.90
2019-04-20T10:07:49.325Z,22.90
2019-04-20T10:10:26.063Z,23.00
2019-04-20T10:12:45.687Z,23.00
2019-04-20T10:15:19.982Z,23.00
2019-04-20T10:17:49.929Z,23.00
2019-04-20T10:20:27.000Z,23.10
2019-04-20T10:22:50.789Z,23.00
2019-04-20T10:25:22.583Z,23.10
2019-04-20T10:27:51.633Z,23.00
2019-04-20T10:30:20.794Z,23.00
2019-04-20T10:32:53.456Z,23.00
2019-04-20T10:35:21.074Z,23.00
2019-04-20T10:37:54.063Z,23.10
2019-04-20T10:40:37.810Z,23.00
2019-04-20T10:42:53.450Z,23.10
2019-04-20T10:45:22.969Z,23.10
2019-04-20T10:47:54.997Z,23.10
2019-04-20T10:50:25.084Z,23.10
2019-04-20T10:52:54.115Z,22.10
2019-04-20T10:55:22.995Z,23.10
2019-04-20T10:57:53.322Z,23.10
2019-04-20T11:00:41.951Z,23.10
2019-04-20T11:03:11.491Z,23.10
2019-04-20T11:05:42.330Z,23.10
2019-04-20T11:08:12.764Z,23.10
2019-04-20T11:10:55.713Z,23.10
2019-04-20T11:13:12.370Z,23.10
2019-04-20T11:15:42.240Z,23.10
2019-04-20T11:18:11.368Z,23.10
2019-04-20T11:20:41.473Z,23.10
2019-04-20T11:23:29.675Z,23.10
2019-04-20T11:25:58.476Z,23.10
2019-04-20T11:28:28.168Z,23.10
2019-04-20T11:30:58.521Z,23.10
2019-04-20T11:33:28.049Z,24.40
2019-04-20T11:35:57.447Z,23.20
2019-04-20T11:38:28.089Z,23.20
2019-04-20T11:41:07.347Z,23.20
2019-04-20T11:43:29.299Z,23.20
2019-04-20T11:45:58.659Z,23.20
2019-04-20T11:48:27.655Z,23.20
2019-04-20T11:50:57.917Z,23.20
2019-04-20T11:53:28.635Z,23.20
2019-04-20T11:55:58.489Z,23.20
2019-04-20T11:58:27.999Z,23.20
2019-04-20T12:01:06.251Z,23.30
2019-04-20T12:03:41.731Z,23.30
2019-04-20T12:06:04.990Z,23.20
2019-04-20T12:08:32.698Z,23.30
2019-04-20T12:11:18.855Z,23.30
2019-04-20T12:13:34.405Z,23.40
2019-04-20T12:16:03.593Z,23.30
2019-04-20T12:18:33.694Z,23.30
2019-04-20T12:21:23.132Z,23.40
2019-04-20T12:23:52.155Z,23.40
2019-04-20T12:26:20.955Z,23.40
2019-04-20T12:28:49.875Z,23.40
2019-04-20T12:31:22.815Z,23.50
2019-04-20T12:33:50.482Z,23.50
2019-04-20T12:36:20.529Z,23.50
2019-04-20T12:38:50.901Z,23.50
2019-04-20T12:41:31.139Z,23.50
2019-04-20T12:43:50.323Z,23.50
2019-04-20T12:46:21.465Z,23.60
2019-04-20T12:48:51.439Z,23.60
2019-04-20T12:51:25.187Z,23.60
2019-04-20T12:53:50.892Z,23.60
2019-04-20T12:56:20.323Z,23.60
2019-04-20T12:58:49.503Z,23.60
2019-04-20T13:01:21.086Z,23.60
2019-04-20T13:03:49.855Z,23.70
2019-04-20T13:06:19.607Z,23.70
2019-04-20T13:08:52.306Z,23.70
2019-04-20T13:11:26.764Z,23.70
2019-04-20T13:14:30.879Z,23.70
2019-04-20T13:16:59.909Z,23.70
2019-04-20T13:19:29.080Z,23.70
2019-04-20T13:21:58.988Z,23.70
2019-04-20T13:24:29.161Z,23.70
2019-04-20T13:26:58.669Z,23.80
2019-04-20T13:29:28.906Z,23.80
2019-04-20T13:31:58.483Z,23.80
2019-04-20T13:34:28.482Z,23.80
2019-04-20T13:36:58.146Z,23.80
2019-04-20T13:39:27.115Z,23.80
2019-04-20T13:42:03.491Z,23.80
2019-04-20T13:44:27.236Z,23.80
2019-04-20T13:46:56.777Z,23.80
2019-04-20T13:49:27.038Z,23.80
2019-04-20T13:51:57.070Z,23.80
2019-04-20T13:54:28.001Z,23.80
2019-04-20T13:56:57.499Z,23.80
2019-04-20T13:59:35.187Z,23.90
2019-04-20T14:02:29.088Z,23.90
2019-04-20T14:04:59.794Z,23.80
2019-04-20T14:07:29.250Z,23.80
2019-04-20T14:09:59.407Z,23.80
2019-04-20T14:12:35.130Z,23.90
2019-04-20T14:14:59.472Z,23.90
2019-04-20T14:17:29.000Z,23.90
2019-04-20T14:20:00.262Z,23.90
2019-04-20T14:22:29.283Z,23.80
2019-04-20T14:24:58.315Z,23.80
2019-04-20T14:27:27.223Z,23.80
2019-04-20T14:29:57.647Z,23.80
2019-04-20T14:32:27.117Z,23.80
2019-04-20T14:34:56.799Z,23.80
2019-04-20T14:37:28.698Z,23.80
2019-04-20T14:39:58.506Z,23.90
2019-04-20T14:42:36.430Z,23.90
2019-04-20T14:44:57.948Z,23.90
2019-04-20T14:47:27.879Z,23.90
2019-04-20T14:50:00.831Z,23.90
2019-04-20T14:52:27.479Z,23.90
2019-04-20T14:54:57.579Z,23.90
2019-04-20T14:57:27.342Z,23.90
2019-04-20T15:00:01.292Z,23.90
2019-04-20T15:02:32.118Z,23.90
2019-04-20T15:05:01.417Z,23.90
2019-04-20T15:07:30.891Z,23.90
2019-04-20T15:10:00.783Z,23.80
2019-04-20T15:12:38.986Z,23.90
2019-04-20T15:15:00.764Z,23.90
2019-04-20T15:17:35.359Z,23.90
2019-04-20T15:20:11.971Z,23.90
2019-04-20T15:22:45.424Z,23.90
2019-04-20T15:25:15.755Z,23.90
2019-04-20T15:27:46.233Z,23.90
2019-04-20T15:30:16.325Z,23.90
2019-04-20T15:32:45.247Z,23.90
2019-04-20T15:35:17.827Z,23.90
2019-04-20T15:37:45.073Z,24.00
2019-04-20T15:40:15.097Z,24.00
2019-04-20T15:42:56.607Z,24.00
2019-04-20T15:45:15.669Z,23.90
2019-04-20T15:47:45.886Z,24.00
2019-04-20T15:50:15.955Z,23.90
2019-04-20T15:52:52.198Z,24.00
2019-04-20T15:55:22.653Z,24.00
2019-04-20T15:57:46.232Z,24.00
2019-04-20T16:00:16.224Z,24.00
2019-04-20T16:02:59.123Z,24.00
2019-04-20T16:05:53.492Z,24.00
2019-04-20T16:08:48.246Z,24.10
2019-04-20T16:11:17.510Z,24.10
2019-04-20T16:13:50.422Z,24.10
2019-04-20T16:16:16.850Z,24.10
2019-04-20T16:19:12.764Z,24.10
2019-04-20T16:21:37.380Z,24.10
2019-04-20T16:24:13.038Z,24.10
2019-04-20T16:26:49.721Z,24.10
2019-04-20T16:29:19.787Z,24.20
2019-04-20T16:31:50.292Z,24.20
2019-04-20T16:34:19.323Z,24.30
2019-04-20T16:36:50.134Z,24.30
2019-04-20T16:39:20.525Z,24.30
2019-04-20T16:41:50.366Z,24.30
2019-04-20T16:44:20.956Z,24.20
2019-04-20T16:46:50.238Z,24.20
2019-04-20T16:49:19.518Z,24.20
2019-04-20T16:51:49.346Z,24.20
2019-04-20T16:54:19.501Z,24.20
2019-04-20T16:56:48.671Z,24.20
2019-04-20T16:59:19.285Z,24.20
2019-04-20T17:01:48.508Z,24.20
2019-04-20T17:04:22.068Z,24.20
2019-04-20T17:07:08.121Z,24.10
2019-04-20T17:09:37.789Z,24.10
2019-04-20T17:12:07.805Z,24.10
2019-04-20T17:14:37.747Z,24.10
2019-04-20T17:17:07.370Z,24.10
2019-04-20T17:19:37.393Z,24.10
2019-04-20T17:22:07.549Z,24.10
2019-04-20T17:24:37.725Z,24.00
2019-04-20T17:27:19.583Z,24.00
2019-04-20T17:30:15.159Z,24.00
2019-04-20T17:32:43.788Z,24.10
2019-04-20T17:35:20.877Z,24.10
2019-04-20T17:37:46.309Z,24.20
2019-04-20T17:40:35.500Z,24.20
2019-04-20T17:42:56.825Z,24.10
2019-04-20T17:45:28.253Z,24.10
2019-04-20T17:48:07.265Z,24.10
2019-04-20T17:50:42.879Z,24.10
2019-04-20T17:53:07.420Z,24.10
2019-04-20T17:55:37.870Z,24.00
2019-04-20T17:58:01.573Z,24.00
2019-04-20T18:00:45.250Z,23.90
2019-04-20T18:03:30.678Z,23.90
2019-04-20T18:06:08.356Z,23.90
2019-04-20T18:08:35.810Z,23.80
2019-04-20T18:11:03.034Z,23.90
2019-04-20T18:13:25.943Z,23.80
2019-04-20T18:16:17.023Z,23.80
2019-04-20T18:18:52.837Z,23.80
2019-04-20T18:21:32.995Z,23.80
2019-04-20T18:24:05.200Z,23.80
2019-04-20T18:26:52.015Z,23.80
2019-04-20T18:29:23.555Z,22.90
2019-04-20T18:31:43.739Z,23.80
2019-04-20T18:34:24.011Z,23.80
2019-04-20T18:36:52.756Z,23.80
2019-04-20T18:39:29.081Z,23.90
2019-04-20T18:41:57.561Z,23.80
2019-04-20T18:44:30.528Z,23.80
2019-04-20T18:47:27.743Z,23.80
2019-04-20T18:49:36.904Z,23.80
2019-04-20T18:51:55.634Z,23.80
2019-04-20T18:54:28.686Z,23.80
2019-04-20T18:56:56.470Z,23.80
2019-04-20T18:59:31.750Z,23.80
2019-04-20T19:01:57.126Z,23.80
2019-04-20T19:04:26.168Z,23.70
2019-04-20T19:06:56.217Z,23.70
2019-04-20T19:09:30.131Z,23.70
2019-04-20T19:12:02.845Z,23.70
2019-04-20T19:15:02.427Z,23.70
2019-04-20T19:17:58.136Z,23.70
2019-04-20T19:20:23.799Z,23.70
2019-04-20T19:22:52.333Z,23.70
2019-04-20T19:25:27.134Z,23.70
2019-04-20T19:27:55.629Z,23.70
2019-04-20T19:30:34.253Z,23.70
2019-04-20T19:33:11.649Z,23.80
2019-04-20T19:35:33.887Z,23.80
2019-04-20T19:38:06.816Z,23.80
2019-04-20T19:40:38.559Z,23.80
2019-04-20T19:43:08.573Z,24.40
2019-04-20T19:45:46.419Z,23.80
2019-04-20T19:48:12.147Z,23.90
2019-04-20T19:50:51.848Z,23.90
2019-04-20T19:53:22.752Z,23.90
2019-04-20T19:55:43.892Z,23.90
2019-04-20T19:58:11.450Z,23.90
2019-04-20T20:01:02.575Z,23.90
2019-04-20T20:03:31.162Z,23.90
2019-04-20T20:06:01.402Z,23.90
2019-04-20T20:08:34.572Z,23.90
2019-04-20T20:11:03.001Z,24.00
2019-04-20T20:13:41.053Z,24.00
2019-04-20T20:16:10.612Z,24.10
2019-04-20T20:18:46.602Z,24.00
2019-04-20T20:21:17.431Z,24.00
2019-04-20T20:23:36.186Z,24.10
2019-04-20T20:26:07.234Z,24.10
2019-04-20T20:28:43.687Z,24.10
2019-04-20T20:31:16.825Z,24.10
2019-04-20T20:33:49.419Z,24.20
2019-04-20T20:36:12.660Z,24.10
2019-04-20T20:38:43.674Z,24.10
2019-04-20T20:41:19.828Z,24.10
2019-04-20T20:43:53.887Z,24.10
2019-04-20T20:46:25.218Z,24.10
2019-04-20T20:49:04.926Z,24.10
2019-04-20T20:51:39.314Z,24.10
2019-04-20T20:53:54.101Z,24.10
2019-04-20T20:56:22.523Z,24.10
2019-04-20T20:58:57.314Z,24.10
2019-04-20T21:01:22.215Z,24.10
2019-04-20T21:03:51.049Z,24.10
2019-04-20T21:06:20.083Z,24.10
2019-04-20T21:08:52.349Z,24.10
2019-04-20T21:11:23.711Z,24.10
2019-04-20T21:13:51.846Z,24.10
2019-04-20T21:16:25.339Z,24.10
2019-04-20T21:19:07.820Z,24.10
2019-04-20T21:21:37.357Z,24.10
2019-04-20T21:24:03.147Z,24.10
2019-04-20T21:26:35.061Z,24.10
2019-04-20T21:28:59.608Z,24.10
2019-04-20T21:31:29.708Z,24.10
2019-04-20T21:34:01.727Z,24.10
2019-04-20T21:36:31.767Z,24.10
2019-04-20T21:39:01.531Z,24.10
2019-04-20T21:41:31.351Z,24.10
2019-04-20T21:44:01.147Z,24.10
2019-04-20T21:46:39.890Z,24.10
2019-04-20T21:49:13.846Z,24.10
2019-04-20T21:51:42.742Z,24.10
2019-04-20T21:54:03.734Z,24.10
2019-04-20T21:56:33.546Z,24.10
2019-04-20T21:59:04.373Z,24.10
2019-04-20T22:01:39.735Z,24.10
2019-04-20T22:04:06.102Z,24.10
2019-04-20T22:06:36.225Z,24.10
2019-04-20T22:09:09.085Z,24.10
2019-04-20T22:11:38.195Z,24.10
2019-04-20T22:14:12.971Z,24.00
2019-04-20T22:16:42.636Z,24.00
2019-04-20T22:19:22.761Z,24.00
2019-04-20T22:21:50.619Z,24.00
2019-04-20T22:24:25.315Z,24.00
2019-04-20T22:26:50.246Z,24.00
2019-04-20T22:29:10.147Z,24.00
2019-04-20T22:31:40.241Z,24.00
2019-04-20T22:34:16.879Z,24.00
2019-04-20T22:36:43.895Z,24.00
2019-04-20T22:39:24.494Z,23.90
2019-04-20T22:41:58.632Z,23.90
2019-04-20T22:44:24.988Z,23.90
2019-04-20T22:46:52.509Z,23.90
2019-04-20T22:49:36.351Z,23.90
2019-04-20T22:52:00.703Z,23.90
2019-04-20T22:54:36.418Z,23.90
2019-04-20T22:57:03.352Z,23.90
2019-04-20T22:59:35.321Z,23.90
2019-04-20T23:01:58.879Z,23.90
2019-04-20T23:04:24.746Z,23.90
2019-04-20T23:06:55.837Z,23.90
2019-04-20T23:09:24.836Z,23.90
2019-04-20T23:12:03.578Z,23.90
2019-04-20T23:14:26.583Z,23.90
2019-04-20T23:16:57.373Z,23.90
2019-04-20T23:19:34.471Z,23.80
2019-04-20T23:22:01.254Z,23.80
2019-04-20T23:24:27.102Z,23.90
2019-04-20T23:26:57.279Z,23.80
2019-04-20T23:29:30.838Z,23.80
2019-04-20T23:32:01.384Z,23.80
2019-04-20T23:34:30.976Z,23.80
2019-04-20T23:36:58.858Z,23.80
2019-04-20T23:39:30.122Z,23.80
2019-04-20T23:42:02.428Z,23.80
2019-04-20T23:44:40.054Z,23.80
2019-04-20T23:47:25.510Z,23.80
2019-04-20T23:50:17.611Z,23.70
2019-04-20T23:52:49.148Z,23.70
2019-04-20T23:55:04.965Z,23.70
2019-04-20T23:57:31.518Z,23.70
